sensor_id;sensor_type;location;lat;lon;timestamp;temperature;humidity
3418;DHT22;1722;51.316;12.370;2023-02-01T00:02:04;4.50;97.80
3418;DHT22;1722;51.316;12.370;2023-02-01T00:04:31;4.50;97.70
3418;DHT22;1722;51.316;12.370;2023-02-01T00:07:00;4.50;97.60
3418;DHT22;1722;51.316;12.370;2023-02-01T00:09:28;4.50;97.60
3418;DHT22;1722;51.316;12.370;2023-02-01T00:11:55;4.40;97.60
3418;DHT22;1722;51.316;12.370;2023-02-01T00:14:25;4.50;97.50
3418;DHT22;1722;51.316;12.370;2023-02-01T00:16:53;4.50;97.50
3418;DHT22;1722;51.316;12.370;2023-02-01T00:19:20;4.40;97.60
3418;DHT22;1722;51.316;12.370;2023-02-01T00:21:48;4.30;97.70
3418;DHT22;1722;51.316;12.370;2023-02-01T00:24:17;4.40;97.60
3418;DHT22;1722;51.316;12.370;2023-02-01T00:26:45;4.30;97.60
3418;DHT22;1722;51.316;12.370;2023-02-01T00:29:15;4.30;97.50
3418;DHT22;1722;51.316;12.370;2023-02-01T00:31:43;4.30;97.20
3418;DHT22;1722;51.316;12.370;2023-02-01T00:34:12;4.40;97.10
3418;DHT22;1722;51.316;12.370;2023-02-01T00:36:40;4.40;96.60
3418;DHT22;1722;51.316;12.370;2023-02-01T00:39:08;4.50;96.40
3418;DHT22;1722;51.316;12.370;2023-02-01T00:41:38;4.40;96.30
3418;DHT22;1722;51.316;12.370;2023-02-01T00:44:06;4.50;96.10
3418;DHT22;1722;51.316;12.370;2023-02-01T00:46:34;4.50;95.90
3418;DHT22;1722;51.316;12.370;2023-02-01T00:49:01;4.50;95.80
3418;DHT22;1722;51.316;12.370;2023-02-01T00:51:30;4.60;95.70
3418;DHT22;1722;51.316;12.370;2023-02-01T00:53:57;4.60;95.70
3418;DHT22;1722;51.316;12.370;2023-02-01T00:56:25;4.50;95.90
3418;DHT22;1722;51.316;12.370;2023-02-01T00:58:56;4.40;96.00
3418;DHT22;1722;51.316;12.370;2023-02-01T01:01:25;4.40;96.20
3418;DHT22;1722;51.316;12.370;2023-02-01T01:03:54;4.40;96.30
3418;DHT22;1722;51.316;12.370;2023-02-01T01:06:23;4.30;96.60
3418;DHT22;1722;51.316;12.370;2023-02-01T01:08:52;4.40;96.70
3418;DHT22;1722;51.316;12.370;2023-02-01T01:11:22;4.40;96.90
3418;DHT22;1722;51.316;12.370;2023-02-01T01:13:51;4.30;97.00
3418;DHT22;1722;51.316;12.370;2023-02-01T01:16:22;4.40;97.00
3418;DHT22;1722;51.316;12.370;2023-02-01T01:18:50;4.30;97.00
3418;DHT22;1722;51.316;12.370;2023-02-01T01:21:17;4.40;97.10
3418;DHT22;1722;51.316;12.370;2023-02-01T01:23:46;4.30;97.20
3418;DHT22;1722;51.316;12.370;2023-02-01T01:26:16;4.30;97.10
3418;DHT22;1722;51.316;12.370;2023-02-01T01:28:43;4.30;97.10
3418;DHT22;1722;51.316;12.370;2023-02-01T01:31:13;4.30;97.20
3418;DHT22;1722;51.316;12.370;2023-02-01T01:33:42;4.40;97.10
3418;DHT22;1722;51.316;12.370;2023-02-01T01:36:11;4.30;97.00
3418;DHT22;1722;51.316;12.370;2023-02-01T01:38:39;4.30;97.20
3418;DHT22;1722;51.316;12.370;2023-02-01T01:41:08;4.30;97.10
3418;DHT22;1722;51.316;12.370;2023-02-01T01:43:50;4.30;97.20
3418;DHT22;1722;51.316;12.370;2023-02-01T01:46:19;4.30;97.10
3418;DHT22;1722;51.316;12.370;2023-02-01T01:48:53;4.30;97.10
3418;DHT22;1722;51.316;12.370;2023-02-01T01:51:24;4.30;97.10
3418;DHT22;1722;51.316;12.370;2023-02-01T01:54:00;4.30;97.00
3418;DHT22;1722;51.316;12.370;2023-02-01T01:56:30;4.30;96.90
3418;DHT22;1722;51.316;12.370;2023-02-01T01:58:59;4.30;97.00
3418;DHT22;1722;51.316;12.370;2023-02-01T02:01:27;4.30;97.00
3418;DHT22;1722;51.316;12.370;2023-02-01T02:03:57;4.20;96.90
3418;DHT22;1722;51.316;12.370;2023-02-01T02:06:36;4.20;96.80
3418;DHT22;1722;51.316;12.370;2023-02-01T02:09:04;4.20;96.80
3418;DHT22;1722;51.316;12.370;2023-02-01T02:11:32;4.20;96.80
3418;DHT22;1722;51.316;12.370;2023-02-01T02:14:00;4.30;96.50
3418;DHT22;1722;51.316;12.370;2023-02-01T02:16:40;4.20;96.50
3418;DHT22;1722;51.316;12.370;2023-02-01T02:28:26;4.20;96.40
3418;DHT22;1722;51.316;12.370;2023-02-01T02:31:23;4.30;96.30
3418;DHT22;1722;51.316;12.370;2023-02-01T02:33:59;4.30;96.10
3418;DHT22;1722;51.316;12.370;2023-02-01T02:36:39;4.40;96.00
3418;DHT22;1722;51.316;12.370;2023-02-01T02:39:14;4.40;96.00
3418;DHT22;1722;51.316;12.370;2023-02-01T02:41:49;4.40;95.90
3418;DHT22;1722;51.316;12.370;2023-02-01T02:44:43;4.40;96.00
3418;DHT22;1722;51.316;12.370;2023-02-01T02:47:38;4.40;95.90
3418;DHT22;1722;51.316;12.370;2023-02-01T02:50:17;4.40;95.80
3418;DHT22;1722;51.316;12.370;2023-02-01T02:53:15;4.40;95.80
3418;DHT22;1722;51.316;12.370;2023-02-01T02:56:03;4.50;95.80
3418;DHT22;1722;51.316;12.370;2023-02-01T02:58:51;4.40;95.80
3418;DHT22;1722;51.316;12.370;2023-02-01T03:01:38;4.40;95.80
3418;DHT22;1722;51.316;12.370;2023-02-01T03:04:24;4.50;95.80
3418;DHT22;1722;51.316;12.370;2023-02-01T03:06:53;4.50;95.80
3418;DHT22;1722;51.316;12.370;2023-02-01T03:09:26;4.60;95.60
3418;DHT22;1722;51.316;12.370;2023-02-01T03:11:58;4.60;95.50
3418;DHT22;1722;51.316;12.370;2023-02-01T03:14:48;4.50;95.60
3418;DHT22;1722;51.316;12.370;2023-02-01T03:17:20;4.60;95.60
3418;DHT22;1722;51.316;12.370;2023-02-01T03:19:51;4.60;95.60
3418;DHT22;1722;51.316;12.370;2023-02-01T03:22:23;4.50;95.50
3418;DHT22;1722;51.316;12.370;2023-02-01T03:24:54;4.50;95.70
3418;DHT22;1722;51.316;12.370;2023-02-01T03:27:26;4.50;95.70
3418;DHT22;1722;51.316;12.370;2023-02-01T03:30:04;4.50;95.60
3418;DHT22;1722;51.316;12.370;2023-02-01T03:32:34;4.50;95.50
3418;DHT22;1722;51.316;12.370;2023-02-01T03:35:25;4.60;95.30
3418;DHT22;1722;51.316;12.370;2023-02-01T03:38:01;4.60;95.30
3418;DHT22;1722;51.316;12.370;2023-02-01T03:40:34;4.60;95.20
3418;DHT22;1722;51.316;12.370;2023-02-01T03:43:05;4.70;95.10
3418;DHT22;1722;51.316;12.370;2023-02-01T03:45:36;4.60;95.10
3418;DHT22;1722;51.316;12.370;2023-02-01T03:48:05;4.70;94.90
3418;DHT22;1722;51.316;12.370;2023-02-01T03:50:35;4.60;95.00
3418;DHT22;1722;51.316;12.370;2023-02-01T03:53:09;4.60;95.00
3418;DHT22;1722;51.316;12.370;2023-02-01T03:55:38;4.60;94.80
3418;DHT22;1722;51.316;12.370;2023-02-01T03:58:08;4.60;94.70
3418;DHT22;1722;51.316;12.370;2023-02-01T04:00:36;4.60;94.80
3418;DHT22;1722;51.316;12.370;2023-02-01T04:03:05;4.70;94.70
3418;DHT22;1722;51.316;12.370;2023-02-01T04:05:33;4.60;94.70
3418;DHT22;1722;51.316;12.370;2023-02-01T04:08:00;4.60;94.70
3418;DHT22;1722;51.316;12.370;2023-02-01T04:10:29;4.70;94.50
3418;DHT22;1722;51.316;12.370;2023-02-01T04:12:57;4.70;94.50
3418;DHT22;1722;51.316;12.370;2023-02-01T04:15:24;4.70;94.40
3418;DHT22;1722;51.316;12.370;2023-02-01T04:17:52;4.70;94.40
3418;DHT22;1722;51.316;12.370;2023-02-01T04:20:19;4.60;94.50
3418;DHT22;1722;51.316;12.370;2023-02-01T04:22:47;4.60;94.50
3418;DHT22;1722;51.316;12.370;2023-02-01T04:25:14;4.60;94.40
3418;DHT22;1722;51.316;12.370;2023-02-01T04:27:44;4.70;94.30
3418;DHT22;1722;51.316;12.370;2023-02-01T04:32:40;4.70;94.10
3418;DHT22;1722;51.316;12.370;2023-02-01T04:35:09;4.70;94.10
3418;DHT22;1722;51.316;12.370;2023-02-01T04:37:37;4.80;94.00
3418;DHT22;1722;51.316;12.370;2023-02-01T04:40:06;4.80;94.00
3418;DHT22;1722;51.316;12.370;2023-02-01T04:42:34;4.80;93.90
3418;DHT22;1722;51.316;12.370;2023-02-01T04:45:03;4.70;93.90
3418;DHT22;1722;51.316;12.370;2023-02-01T04:47:31;4.70;94.10
3418;DHT22;1722;51.316;12.370;2023-02-01T04:49:58;4.70;94.10
3418;DHT22;1722;51.316;12.370;2023-02-01T04:52:26;4.70;94.20
3418;DHT22;1722;51.316;12.370;2023-02-01T04:54:54;4.70;94.10
3418;DHT22;1722;51.316;12.370;2023-02-01T04:57:23;4.70;94.00
3418;DHT22;1722;51.316;12.370;2023-02-01T04:59:51;4.70;94.10
3418;DHT22;1722;51.316;12.370;2023-02-01T05:02:20;4.60;94.00
3418;DHT22;1722;51.316;12.370;2023-02-01T05:04:47;4.70;94.00
3418;DHT22;1722;51.316;12.370;2023-02-01T05:07:15;4.70;94.10
3418;DHT22;1722;51.316;12.370;2023-02-01T05:09:42;4.70;94.20
3418;DHT22;1722;51.316;12.370;2023-02-01T05:12:10;4.70;94.30
3418;DHT22;1722;51.316;12.370;2023-02-01T05:14:57;4.70;94.30
3418;DHT22;1722;51.316;12.370;2023-02-01T05:17:26;4.70;94.20
3418;DHT22;1722;51.316;12.370;2023-02-01T05:19:53;4.70;94.20
3418;DHT22;1722;51.316;12.370;2023-02-01T05:22:21;4.70;94.60
3418;DHT22;1722;51.316;12.370;2023-02-01T05:24:48;4.60;94.50
3418;DHT22;1722;51.316;12.370;2023-02-01T05:27:16;4.60;94.60
3418;DHT22;1722;51.316;12.370;2023-02-01T05:29:43;4.70;94.50
3418;DHT22;1722;51.316;12.370;2023-02-01T05:32:11;4.60;94.70
3418;DHT22;1722;51.316;12.370;2023-02-01T05:34:40;4.60;94.80
3418;DHT22;1722;51.316;12.370;2023-02-01T05:37:07;4.70;94.90
3418;DHT22;1722;51.316;12.370;2023-02-01T05:39:35;4.70;94.80
3418;DHT22;1722;51.316;12.370;2023-02-01T05:42:02;4.70;94.90
3418;DHT22;1722;51.316;12.370;2023-02-01T05:44:30;4.60;95.00
3418;DHT22;1722;51.316;12.370;2023-02-01T05:46:57;4.60;95.10
3418;DHT22;1722;51.316;12.370;2023-02-01T05:49:25;4.50;95.30
3418;DHT22;1722;51.316;12.370;2023-02-01T05:51:54;4.50;95.40
3418;DHT22;1722;51.316;12.370;2023-02-01T05:54:21;4.50;95.30
3418;DHT22;1722;51.316;12.370;2023-02-01T05:56:49;4.40;95.50
3418;DHT22;1722;51.316;12.370;2023-02-01T05:59:17;4.40;95.50
3418;DHT22;1722;51.316;12.370;2023-02-01T06:01:44;4.50;95.50
3418;DHT22;1722;51.316;12.370;2023-02-01T06:04:12;4.50;95.30
3418;DHT22;1722;51.316;12.370;2023-02-01T06:06:39;4.50;95.40
3418;DHT22;1722;51.316;12.370;2023-02-01T06:09:08;4.50;95.50
3418;DHT22;1722;51.316;12.370;2023-02-01T06:11:36;4.40;95.70
3418;DHT22;1722;51.316;12.370;2023-02-01T06:14:03;4.40;95.80
3418;DHT22;1722;51.316;12.370;2023-02-01T06:16:34;4.40;95.90
3418;DHT22;1722;51.316;12.370;2023-02-01T06:19:01;4.50;95.90
3418;DHT22;1722;51.316;12.370;2023-02-01T06:21:28;4.40;95.90
3418;DHT22;1722;51.316;12.370;2023-02-01T06:23:56;4.50;95.80
3418;DHT22;1722;51.316;12.370;2023-02-01T06:26:26;4.50;95.70
3418;DHT22;1722;51.316;12.370;2023-02-01T06:28:56;4.50;95.80
3418;DHT22;1722;51.316;12.370;2023-02-01T06:31:23;4.50;95.70
3418;DHT22;1722;51.316;12.370;2023-02-01T06:33:51;4.50;95.70
3418;DHT22;1722;51.316;12.370;2023-02-01T06:36:20;4.50;95.70
3418;DHT22;1722;51.316;12.370;2023-02-01T06:38:48;4.50;95.70
3418;DHT22;1722;51.316;12.370;2023-02-01T06:41:16;4.50;95.70
3418;DHT22;1722;51.316;12.370;2023-02-01T06:43:44;4.50;95.60
3418;DHT22;1722;51.316;12.370;2023-02-01T06:46:13;4.60;95.50
3418;DHT22;1722;51.316;12.370;2023-02-01T06:48:41;4.60;95.70
3418;DHT22;1722;51.316;12.370;2023-02-01T06:51:19;4.50;95.40
3418;DHT22;1722;51.316;12.370;2023-02-01T06:53:47;4.60;95.40
3418;DHT22;1722;51.316;12.370;2023-02-01T06:56:15;4.50;95.40
3418;DHT22;1722;51.316;12.370;2023-02-01T06:58:42;4.50;95.40
3418;DHT22;1722;51.316;12.370;2023-02-01T07:01:12;4.50;95.30
3418;DHT22;1722;51.316;12.370;2023-02-01T07:03:40;4.60;95.20
3418;DHT22;1722;51.316;12.370;2023-02-01T07:06:08;4.60;95.20
3418;DHT22;1722;51.316;12.370;2023-02-01T07:08:37;4.60;95.20
3418;DHT22;1722;51.316;12.370;2023-02-01T07:11:07;4.80;96.60
3418;DHT22;1722;51.316;12.370;2023-02-01T07:13:35;4.80;94.90
3418;DHT22;1722;51.316;12.370;2023-02-01T07:16:04;4.70;95.00
3418;DHT22;1722;51.316;12.370;2023-02-01T07:18:34;4.70;95.00
3418;DHT22;1722;51.316;12.370;2023-02-01T07:21:01;4.60;95.10
3418;DHT22;1722;51.316;12.370;2023-02-01T07:23:29;4.70;94.90
3418;DHT22;1722;51.316;12.370;2023-02-01T07:25:58;4.70;94.80
3418;DHT22;1722;51.316;12.370;2023-02-01T07:28:27;4.70;94.80
3418;DHT22;1722;51.316;12.370;2023-02-01T07:31:01;4.80;94.60
3418;DHT22;1722;51.316;12.370;2023-02-01T07:33:28;4.80;94.40
3418;DHT22;1722;51.316;12.370;2023-02-01T07:35:57;4.80;94.60
3418;DHT22;1722;51.316;12.370;2023-02-01T07:38:27;4.90;94.50
3418;DHT22;1722;51.316;12.370;2023-02-01T07:40:57;4.90;94.30
3418;DHT22;1722;51.316;12.370;2023-02-01T07:43:25;4.90;94.30
3418;DHT22;1722;51.316;12.370;2023-02-01T07:45:53;4.90;94.20
3418;DHT22;1722;51.316;12.370;2023-02-01T07:48:22;4.90;94.20
3418;DHT22;1722;51.316;12.370;2023-02-01T07:50:58;4.90;94.20
3418;DHT22;1722;51.316;12.370;2023-02-01T07:53:26;5.00;94.20
3418;DHT22;1722;51.316;12.370;2023-02-01T07:55:53;5.00;94.20
3418;DHT22;1722;51.316;12.370;2023-02-01T07:58:22;5.00;94.20
3418;DHT22;1722;51.316;12.370;2023-02-01T08:00:50;5.00;94.20
3418;DHT22;1722;51.316;12.370;2023-02-01T08:03:35;5.00;94.20
3418;DHT22;1722;51.316;12.370;2023-02-01T08:06:04;5.00;94.10
3418;DHT22;1722;51.316;12.370;2023-02-01T08:08:32;5.10;94.20
3418;DHT22;1722;51.316;12.370;2023-02-01T08:11:01;5.00;94.30
3418;DHT22;1722;51.316;12.370;2023-02-01T08:13:29;5.00;94.40
3418;DHT22;1722;51.316;12.370;2023-02-01T08:15:58;5.00;94.50
3418;DHT22;1722;51.316;12.370;2023-02-01T08:18:25;5.10;94.60
3418;DHT22;1722;51.316;12.370;2023-02-01T08:20:53;5.00;94.70
3418;DHT22;1722;51.316;12.370;2023-02-01T08:23:23;5.00;94.80
3418;DHT22;1722;51.316;12.370;2023-02-01T08:25:50;5.00;94.80
3418;DHT22;1722;51.316;12.370;2023-02-01T08:28:18;5.00;94.90
3418;DHT22;1722;51.316;12.370;2023-02-01T08:30:45;4.90;95.20
3418;DHT22;1722;51.316;12.370;2023-02-01T08:33:13;4.90;95.60
3418;DHT22;1722;51.316;12.370;2023-02-01T08:35:40;4.90;95.70
3418;DHT22;1722;51.316;12.370;2023-02-01T08:38:08;4.90;96.20
3418;DHT22;1722;51.316;12.370;2023-02-01T08:40:37;4.80;96.60
3418;DHT22;1722;51.316;12.370;2023-02-01T08:43:04;4.80;97.10
3418;DHT22;1722;51.316;12.370;2023-02-01T08:45:32;4.70;97.50
3418;DHT22;1722;51.316;12.370;2023-02-01T08:48:00;4.60;97.90
3418;DHT22;1722;51.316;12.370;2023-02-01T08:50:27;4.50;98.70
3418;DHT22;1722;51.316;12.370;2023-02-01T08:52:54;4.30;99.90
3418;DHT22;1722;51.316;12.370;2023-02-01T08:55:22;4.20;99.90
3418;DHT22;1722;51.316;12.370;2023-02-01T08:57:51;4.00;99.90
3418;DHT22;1722;51.316;12.370;2023-02-01T09:00:18;3.90;99.90
3418;DHT22;1722;51.316;12.370;2023-02-01T09:02:46;3.90;99.90
3418;DHT22;1722;51.316;12.370;2023-02-01T09:05:13;3.80;99.90
3418;DHT22;1722;51.316;12.370;2023-02-01T09:07:42;3.90;99.90
3418;DHT22;1722;51.316;12.370;2023-02-01T09:10:10;3.90;99.90
3418;DHT22;1722;51.316;12.370;2023-02-01T09:12:38;3.90;99.90
3418;DHT22;1722;51.316;12.370;2023-02-01T09:15:08;3.90;99.90
3418;DHT22;1722;51.316;12.370;2023-02-01T09:17:35;3.90;99.90
3418;DHT22;1722;51.316;12.370;2023-02-01T09:20:04;4.00;99.90
3418;DHT22;1722;51.316;12.370;2023-02-01T09:22:31;3.90;99.90
3418;DHT22;1722;51.316;12.370;2023-02-01T09:24:59;4.00;99.90
3418;DHT22;1722;51.316;12.370;2023-02-01T09:27:26;4.10;99.90
3418;DHT22;1722;51.316;12.370;2023-02-01T09:29:54;4.10;99.90
3418;DHT22;1722;51.316;12.370;2023-02-01T09:32:23;4.10;99.90
3418;DHT22;1722;51.316;12.370;2023-02-01T09:34:51;4.10;99.90
3418;DHT22;1722;51.316;12.370;2023-02-01T09:37:20;4.10;99.90
3418;DHT22;1722;51.316;12.370;2023-02-01T09:39:47;4.00;99.90
3418;DHT22;1722;51.316;12.370;2023-02-01T09:42:31;4.10;99.90
3418;DHT22;1722;51.316;12.370;2023-02-01T09:45:13;4.10;99.90
3418;DHT22;1722;51.316;12.370;2023-02-01T09:47:47;4.20;99.90
3418;DHT22;1722;51.316;12.370;2023-02-01T09:50:21;4.30;99.90
3418;DHT22;1722;51.316;12.370;2023-02-01T09:52:55;4.30;99.90
3418;DHT22;1722;51.316;12.370;2023-02-01T09:55:32;4.40;99.90
3418;DHT22;1722;51.316;12.370;2023-02-01T09:58:05;4.50;99.90
3418;DHT22;1722;51.316;12.370;2023-02-01T10:00:36;4.50;99.90
3418;DHT22;1722;51.316;12.370;2023-02-01T10:03:11;4.60;99.70
3418;DHT22;1722;51.316;12.370;2023-02-01T10:05:54;4.60;99.80
3418;DHT22;1722;51.316;12.370;2023-02-01T10:08:31;4.60;99.30
3418;DHT22;1722;51.316;12.370;2023-02-01T10:11:06;4.70;99.30
3418;DHT22;1722;51.316;12.370;2023-02-01T10:13:49;4.70;99.30
3418;DHT22;1722;51.316;12.370;2023-02-01T10:16:25;4.70;99.10
3418;DHT22;1722;51.316;12.370;2023-02-01T10:19:15;4.90;99.30
3418;DHT22;1722;51.316;12.370;2023-02-01T10:21:53;4.90;98.90
3418;DHT22;1722;51.316;12.370;2023-02-01T10:24:40;4.90;98.60
3418;DHT22;1722;51.316;12.370;2023-02-01T10:27:14;4.90;98.30
3418;DHT22;1722;51.316;12.370;2023-02-01T10:29:44;5.00;98.10
3418;DHT22;1722;51.316;12.370;2023-02-01T10:32:15;5.00;98.40
3418;DHT22;1722;51.316;12.370;2023-02-01T10:34:46;5.10;98.40
3418;DHT22;1722;51.316;12.370;2023-02-01T10:37:22;5.10;98.30
3418;DHT22;1722;51.316;12.370;2023-02-01T10:39:53;5.20;97.60
3418;DHT22;1722;51.316;12.370;2023-02-01T10:42:25;5.30;97.70
3418;DHT22;1722;51.316;12.370;2023-02-01T10:44:54;5.50;97.30
3418;DHT22;1722;51.316;12.370;2023-02-01T10:47:22;5.60;96.80
3418;DHT22;1722;51.316;12.370;2023-02-01T10:49:55;5.70;96.80
3418;DHT22;1722;51.316;12.370;2023-02-01T10:52:33;5.80;96.50
3418;DHT22;1722;51.316;12.370;2023-02-01T10:55:33;5.80;95.60
3418;DHT22;1722;51.316;12.370;2023-02-01T10:58:02;5.90;94.00
3418;DHT22;1722;51.316;12.370;2023-02-01T11:00:39;5.90;94.20
3418;DHT22;1722;51.316;12.370;2023-02-01T11:03:30;5.90;93.70
3418;DHT22;1722;51.316;12.370;2023-02-01T11:06:01;6.00;93.70
3418;DHT22;1722;51.316;12.370;2023-02-01T11:08:30;6.20;93.30
3418;DHT22;1722;51.316;12.370;2023-02-01T11:10:59;6.40;92.80
3418;DHT22;1722;51.316;12.370;2023-02-01T11:13:31;6.60;92.50
3418;DHT22;1722;51.316;12.370;2023-02-01T11:16:03;6.70;92.30
3418;DHT22;1722;51.316;12.370;2023-02-01T11:18:35;6.90;91.80
3418;DHT22;1722;51.316;12.370;2023-02-01T11:21:06;6.90;91.40
3418;DHT22;1722;51.316;12.370;2023-02-01T11:23:40;6.90;92.00
3418;DHT22;1722;51.316;12.370;2023-02-01T11:26:11;6.80;91.60
3418;DHT22;1722;51.316;12.370;2023-02-01T11:28:43;6.70;91.20
3418;DHT22;1722;51.316;12.370;2023-02-01T11:31:15;6.70;91.90
3418;DHT22;1722;51.316;12.370;2023-02-01T11:33:48;6.70;91.50
3418;DHT22;1722;51.316;12.370;2023-02-01T11:36:20;6.60;91.40
3418;DHT22;1722;51.316;12.370;2023-02-01T11:38:53;6.80;91.70
3418;DHT22;1722;51.316;12.370;2023-02-01T11:41:23;6.90;91.30
3418;DHT22;1722;51.316;12.370;2023-02-01T11:43:56;7.00;91.20
3418;DHT22;1722;51.316;12.370;2023-02-01T11:46:28;7.10;91.00
3418;DHT22;1722;51.316;12.370;2023-02-01T11:48:57;7.10;90.60
3418;DHT22;1722;51.316;12.370;2023-02-01T11:51:52;7.20;90.80
3418;DHT22;1722;51.316;12.370;2023-02-01T11:54:42;7.20;90.60
3418;DHT22;1722;51.316;12.370;2023-02-01T11:57:25;7.20;90.50
3418;DHT22;1722;51.316;12.370;2023-02-01T12:00:06;7.20;90.20
3418;DHT22;1722;51.316;12.370;2023-02-01T12:03:04;7.20;90.50
3418;DHT22;1722;51.316;12.370;2023-02-01T12:05:41;7.20;90.60
3418;DHT22;1722;51.316;12.370;2023-02-01T12:08:34;7.20;90.70
3418;DHT22;1722;51.316;12.370;2023-02-01T12:11:21;7.00;90.60
3418;DHT22;1722;51.316;12.370;2023-02-01T12:14:02;7.00;90.40
3418;DHT22;1722;51.316;12.370;2023-02-01T12:16:51;7.00;90.30
3418;DHT22;1722;51.316;12.370;2023-02-01T12:19:38;7.00;90.60
3418;DHT22;1722;51.316;12.370;2023-02-01T12:22:28;7.00;90.50
3418;DHT22;1722;51.316;12.370;2023-02-01T12:25:35;7.00;90.60
3418;DHT22;1722;51.316;12.370;2023-02-01T12:28:26;7.00;90.10
3418;DHT22;1722;51.316;12.370;2023-02-01T12:31:11;7.00;90.10
3418;DHT22;1722;51.316;12.370;2023-02-01T12:34:03;7.10;89.60
3418;DHT22;1722;51.316;12.370;2023-02-01T12:36:42;7.00;89.60
3418;DHT22;1722;51.316;12.370;2023-02-01T12:39:22;7.00;88.00
3418;DHT22;1722;51.316;12.370;2023-02-01T12:41:58;7.00;87.40
3418;DHT22;1722;51.316;12.370;2023-02-01T12:44:35;7.00;86.90
3418;DHT22;1722;51.316;12.370;2023-02-01T12:47:09;7.10;86.00
3418;DHT22;1722;51.316;12.370;2023-02-01T12:49:46;7.10;86.20
3418;DHT22;1722;51.316;12.370;2023-02-01T12:52:19;7.10;85.00
3418;DHT22;1722;51.316;12.370;2023-02-01T12:54:54;7.10;85.00
3418;DHT22;1722;51.316;12.370;2023-02-01T12:57:27;7.20;85.10
3418;DHT22;1722;51.316;12.370;2023-02-01T13:00:04;7.20;85.20
3418;DHT22;1722;51.316;12.370;2023-02-01T13:02:38;7.20;85.30
3418;DHT22;1722;51.316;12.370;2023-02-01T13:05:15;7.20;86.00
3418;DHT22;1722;51.316;12.370;2023-02-01T13:07:48;7.30;86.10
3418;DHT22;1722;51.316;12.370;2023-02-01T13:10:20;7.20;84.50
3418;DHT22;1722;51.316;12.370;2023-02-01T13:12:54;7.20;84.40
3418;DHT22;1722;51.316;12.370;2023-02-01T13:15:29;7.10;84.10
3418;DHT22;1722;51.316;12.370;2023-02-01T13:18:00;7.00;83.30
3418;DHT22;1722;51.316;12.370;2023-02-01T13:20:31;7.00;83.90
3418;DHT22;1722;51.316;12.370;2023-02-01T13:23:04;6.90;83.90
3418;DHT22;1722;51.316;12.370;2023-02-01T13:25:35;6.90;83.60
3418;DHT22;1722;51.316;12.370;2023-02-01T13:28:11;6.90;83.00
3418;DHT22;1722;51.316;12.370;2023-02-01T13:31:00;6.90;83.40
3418;DHT22;1722;51.316;12.370;2023-02-01T13:34:03;6.80;82.90
3418;DHT22;1722;51.316;12.370;2023-02-01T13:36:43;6.80;82.80
3418;DHT22;1722;51.316;12.370;2023-02-01T13:42:26;6.90;82.60
3418;DHT22;1722;51.316;12.370;2023-02-01T13:44:59;6.90;83.50
3418;DHT22;1722;51.316;12.370;2023-02-01T13:47:30;6.90;84.20
3418;DHT22;1722;51.316;12.370;2023-02-01T13:50:01;6.90;84.90
3418;DHT22;1722;51.316;12.370;2023-02-01T13:52:36;6.90;85.80
3418;DHT22;1722;51.316;12.370;2023-02-01T13:55:29;6.90;87.00
3418;DHT22;1722;51.316;12.370;2023-02-01T13:58:04;6.90;88.20
3418;DHT22;1722;51.316;12.370;2023-02-01T14:00:35;6.90;89.40
3418;DHT22;1722;51.316;12.370;2023-02-01T14:03:22;6.90;89.90
3418;DHT22;1722;51.316;12.370;2023-02-01T14:06:01;7.00;90.30
3418;DHT22;1722;51.316;12.370;2023-02-01T14:08:46;6.90;90.20
3418;DHT22;1722;51.316;12.370;2023-02-01T14:11:39;6.90;90.10
3418;DHT22;1722;51.316;12.370;2023-02-01T14:17:35;6.80;90.40
3418;DHT22;1722;51.316;12.370;2023-02-01T14:28:48;6.70;91.00
3418;DHT22;1722;51.316;12.370;2023-02-01T14:31:39;6.70;91.00
3418;DHT22;1722;51.316;12.370;2023-02-01T14:36:58;6.70;90.70
3418;DHT22;1722;51.316;12.370;2023-02-01T14:39:30;6.70;90.80
3418;DHT22;1722;51.316;12.370;2023-02-01T14:42:01;6.80;90.50
3418;DHT22;1722;51.316;12.370;2023-02-01T14:44:35;6.90;90.10
3418;DHT22;1722;51.316;12.370;2023-02-01T14:50:30;7.10;89.30
3418;DHT22;1722;51.316;12.370;2023-02-01T14:53:18;7.10;89.40
3418;DHT22;1722;51.316;12.370;2023-02-01T14:55:52;7.00;89.60
3418;DHT22;1722;51.316;12.370;2023-02-01T14:58:30;6.90;89.70
3418;DHT22;1722;51.316;12.370;2023-02-01T15:01:00;6.90;89.60
3418;DHT22;1722;51.316;12.370;2023-02-01T15:03:43;6.80;89.90
3418;DHT22;1722;51.316;12.370;2023-02-01T15:06:23;6.80;90.00
3418;DHT22;1722;51.316;12.370;2023-02-01T15:08:54;6.70;90.30
3418;DHT22;1722;51.316;12.370;2023-02-01T15:11:23;6.70;90.60
3418;DHT22;1722;51.316;12.370;2023-02-01T15:13:52;6.60;91.50
3418;DHT22;1722;51.316;12.370;2023-02-01T15:16:23;6.50;92.00
3418;DHT22;1722;51.316;12.370;2023-02-01T15:19:06;6.40;92.50
3418;DHT22;1722;51.316;12.370;2023-02-01T15:21:44;6.30;92.10
3418;DHT22;1722;51.316;12.370;2023-02-01T15:24:14;6.20;92.30
3418;DHT22;1722;51.316;12.370;2023-02-01T15:26:45;6.20;92.80
3418;DHT22;1722;51.316;12.370;2023-02-01T15:29:14;6.20;92.90
3418;DHT22;1722;51.316;12.370;2023-02-01T15:31:43;6.10;93.00
3418;DHT22;1722;51.316;12.370;2023-02-01T15:34:12;6.10;93.10
3418;DHT22;1722;51.316;12.370;2023-02-01T15:36:40;6.00;93.50
3418;DHT22;1722;51.316;12.370;2023-02-01T15:39:18;5.90;94.20
3418;DHT22;1722;51.316;12.370;2023-02-01T15:41:48;5.90;94.80
3418;DHT22;1722;51.316;12.370;2023-02-01T15:44:28;5.80;94.60
3418;DHT22;1722;51.316;12.370;2023-02-01T15:46:56;5.80;94.80
3418;DHT22;1722;51.316;12.370;2023-02-01T15:49:27;5.80;94.30
3418;DHT22;1722;51.316;12.370;2023-02-01T15:51:57;5.80;93.80
3418;DHT22;1722;51.316;12.370;2023-02-01T15:54:29;5.90;93.70
3418;DHT22;1722;51.316;12.370;2023-02-01T15:56:59;5.80;93.40
3418;DHT22;1722;51.316;12.370;2023-02-01T15:59:32;5.90;93.70
3418;DHT22;1722;51.316;12.370;2023-02-01T16:02:02;5.90;93.90
3418;DHT22;1722;51.316;12.370;2023-02-01T16:04:30;5.90;94.50
3418;DHT22;1722;51.316;12.370;2023-02-01T16:07:00;5.70;96.20
3418;DHT22;1722;51.316;12.370;2023-02-01T16:09:38;4.40;99.40
3418;DHT22;1722;51.316;12.370;2023-02-01T16:12:26;3.80;99.90
3418;DHT22;1722;51.316;12.370;2023-02-01T16:14:55;3.70;99.90
3418;DHT22;1722;51.316;12.370;2023-02-01T16:17:23;3.60;99.90
3418;DHT22;1722;51.316;12.370;2023-02-01T16:19:50;3.50;99.90
3418;DHT22;1722;51.316;12.370;2023-02-01T16:22:18;3.30;99.90
3418;DHT22;1722;51.316;12.370;2023-02-01T16:24:47;3.10;99.90
3418;DHT22;1722;51.316;12.370;2023-02-01T16:27:14;2.80;99.90
3418;DHT22;1722;51.316;12.370;2023-02-01T16:29:42;2.80;99.90
3418;DHT22;1722;51.316;12.370;2023-02-01T16:32:15;3.00;99.90
3418;DHT22;1722;51.316;12.370;2023-02-01T16:34:43;2.90;99.90
3418;DHT22;1722;51.316;12.370;2023-02-01T16:37:13;2.80;99.90
3418;DHT22;1722;51.316;12.370;2023-02-01T16:39:41;2.70;99.90
3418;DHT22;1722;51.316;12.370;2023-02-01T16:42:13;2.60;99.90
3418;DHT22;1722;51.316;12.370;2023-02-01T16:44:41;2.60;99.90
3418;DHT22;1722;51.316;12.370;2023-02-01T16:47:16;2.60;99.90
3418;DHT22;1722;51.316;12.370;2023-02-01T16:49:44;2.60;99.90
3418;DHT22;1722;51.316;12.370;2023-02-01T16:52:15;2.60;99.90
3418;DHT22;1722;51.316;12.370;2023-02-01T16:54:43;2.60;99.90
3418;DHT22;1722;51.316;12.370;2023-02-01T16:57:14;2.60;99.90
3418;DHT22;1722;51.316;12.370;2023-02-01T16:59:42;2.60;99.90
3418;DHT22;1722;51.316;12.370;2023-02-01T17:02:14;2.50;99.90
3418;DHT22;1722;51.316;12.370;2023-02-01T17:04:42;2.50;99.90
3418;DHT22;1722;51.316;12.370;2023-02-01T17:07:12;2.70;99.90
3418;DHT22;1722;51.316;12.370;2023-02-01T17:09:39;2.80;99.90